createdAt,value
2019-03-29T00:01:31.630Z,9.50
2019-03-29T00:04:01.314Z,9.50
2019-03-29T00:06:31.555Z,9.50
2019-03-29T00:09:01.950Z,9.40
2019-03-29T00:11:31.845Z,9.40
2019-03-29T00:14:01.224Z,9.40
2019-03-29T00:16:30.810Z,9.40
2019-03-29T00:19:00.142Z,9.40
2019-03-29T00:21:29.483Z,9.40
2019-03-29T00:24:06.607Z,9.40
2019-03-29T00:26:29.951Z,9.30
2019-03-29T00:28:59.283Z,9.30
2019-03-29T00:31:28.602Z,9.30
2019-03-29T00:33:57.959Z,9.30
2019-03-29T00:36:27.327Z,9.30
2019-03-29T00:38:56.955Z,9.30
2019-03-29T00:41:26.677Z,9.20
2019-03-29T00:43:55.954Z,9.20
2019-03-29T00:46:25.573Z,9.20
2019-03-29T00:48:55.010Z,9.20
2019-03-29T00:51:24.940Z,9.20
2019-03-29T00:53:54.527Z,9.10
2019-03-29T00:56:23.964Z,9.10
2019-03-29T00:58:53.603Z,9.10
2019-03-29T01:01:23.118Z,9.00
2019-03-29T01:03:52.823Z,9.00
2019-03-29T01:06:22.323Z,9.00
2019-03-29T01:08:51.687Z,9.00
2019-03-29T01:11:21.113Z,9.00
2019-03-29T01:13:50.960Z,9.00
2019-03-29T01:16:20.763Z,8.90
2019-03-29T01:18:50.301Z,8.90
2019-03-29T01:21:19.784Z,8.90
2019-03-29T01:23:55.451Z,8.90
2019-03-29T01:26:25.154Z,8.80
2019-03-29T01:28:54.486Z,8.80
2019-03-29T01:31:24.046Z,8.80
2019-03-29T01:33:53.749Z,8.80
2019-03-29T01:36:23.190Z,8.80
2019-03-29T01:38:52.658Z,8.70
2019-03-29T01:41:22.252Z,8.70
2019-03-29T01:43:51.678Z,8.70
2019-03-29T01:46:21.149Z,8.70
2019-03-29T01:48:50.796Z,8.70
2019-03-29T01:51:20.166Z,8.70
2019-03-29T01:53:49.800Z,8.70
2019-03-29T01:56:19.295Z,8.70
2019-03-29T01:58:48.602Z,8.60
2019-03-29T02:01:17.913Z,8.60
2019-03-29T02:03:47.829Z,8.60
2019-03-29T02:06:17.217Z,8.60
2019-03-29T02:08:46.881Z,8.60
2019-03-29T02:11:16.541Z,8.60
2019-03-29T02:13:46.038Z,8.60
2019-03-29T02:16:15.475Z,8.60
2019-03-29T02:18:44.802Z,8.60
2019-03-29T02:21:14.467Z,8.60
2019-03-29T02:23:43.871Z,8.60
2019-03-29T02:26:13.269Z,8.60
2019-03-29T02:28:43.067Z,8.60
2019-03-29T02:31:12.397Z,8.60
2019-03-29T02:33:42.273Z,8.60
2019-03-29T02:36:11.605Z,8.60
2019-03-29T02:38:54.115Z,8.60
2019-03-29T02:41:12.209Z,8.60
2019-03-29T02:43:41.623Z,8.60
2019-03-29T02:46:10.988Z,8.60
2019-03-29T02:48:40.620Z,8.60
2019-03-29T02:51:09.955Z,8.60
2019-03-29T02:53:39.255Z,8.60
2019-03-29T02:56:08.636Z,8.60
2019-03-29T02:58:37.954Z,8.50
2019-03-29T03:01:07.369Z,8.50
2019-03-29T03:03:36.671Z,8.50
2019-03-29T03:06:06.398Z,8.50
2019-03-29T03:08:36.129Z,8.50
2019-03-29T03:11:06.123Z,8.50
2019-03-29T03:13:35.765Z,8.50
2019-03-29T03:16:05.238Z,8.50
2019-03-29T03:18:34.559Z,8.40
2019-03-29T03:21:04.032Z,8.50
2019-03-29T03:23:33.741Z,8.40
2019-03-29T03:26:03.127Z,8.40
2019-03-29T03:28:33.166Z,8.40
2019-03-29T03:31:02.893Z,8.40
2019-03-29T03:33:32.185Z,8.40
2019-03-29T03:36:01.502Z,8.30
2019-03-29T03:38:30.978Z,8.30
2019-03-29T03:41:00.287Z,8.30
2019-03-29T03:43:29.644Z,8.20
2019-03-29T03:45:58.943Z,8.20
2019-03-29T03:48:28.274Z,8.20
2019-03-29T03:50:58.420Z,8.20
2019-03-29T03:53:27.935Z,8.20
2019-03-29T03:55:59.484Z,8.10
2019-03-29T03:58:29.289Z,8.10
2019-03-29T04:00:59.455Z,8.10
2019-03-29T04:03:29.072Z,8.10
2019-03-29T04:05:58.658Z,8.10
2019-03-29T04:08:28.433Z,8.10
2019-03-29T04:10:58.710Z,8.00
2019-03-29T04:13:28.781Z,8.10
2019-03-29T04:15:58.372Z,8.00
2019-03-29T04:18:27.793Z,8.00
2019-03-29T04:20:57.199Z,8.00
2019-03-29T04:23:26.499Z,8.00
2019-03-29T04:25:56.304Z,8.00
2019-03-29T04:28:25.700Z,8.00
2019-03-29T04:30:55.015Z,8.00
2019-03-29T04:33:24.311Z,7.90
2019-03-29T04:35:53.746Z,7.90
2019-03-29T04:38:23.212Z,7.90
2019-03-29T04:40:52.528Z,7.90
2019-03-29T04:43:22.130Z,7.80
2019-03-29T04:45:51.807Z,7.80
2019-03-29T04:48:21.456Z,7.80
2019-03-29T04:50:50.741Z,7.80
2019-03-29T04:53:20.112Z,7.80
2019-03-29T04:55:49.779Z,7.80
2019-03-29T04:58:19.463Z,7.80
2019-03-29T05:00:48.974Z,7.80
2019-03-29T05:03:18.634Z,7.80
2019-03-29T05:05:48.306Z,7.80
2019-03-29T05:08:17.634Z,7.80
2019-03-29T05:10:46.951Z,7.80
2019-03-29T05:13:16.506Z,7.80
2019-03-29T05:15:46.214Z,7.80
2019-03-29T05:18:15.544Z,7.80
2019-03-29T05:20:45.327Z,7.90
2019-03-29T05:23:14.718Z,7.90
2019-03-29T05:25:44.539Z,7.90
2019-03-29T05:28:14.146Z,7.90
2019-03-29T05:30:43.815Z,8.00
2019-03-29T05:33:13.210Z,8.00
2019-03-29T05:35:42.658Z,8.00
2019-03-29T05:38:12.279Z,8.00
2019-03-29T05:40:41.705Z,8.10
2019-03-29T05:43:11.145Z,8.10
2019-03-29T05:45:40.556Z,8.10
2019-03-29T05:48:10.613Z,8.10
2019-03-29T05:50:39.944Z,8.10
2019-03-29T05:53:09.406Z,8.20
2019-03-29T05:55:38.839Z,8.20
2019-03-29T05:58:08.542Z,8.20
2019-03-29T06:00:37.906Z,8.20
2019-03-29T06:03:09.911Z,8.30
2019-03-29T06:05:38.883Z,8.30
2019-03-29T06:08:08.211Z,8.30
2019-03-29T06:10:48.232Z,8.40
2019-03-29T06:13:08.866Z,8.40
2019-03-29T06:15:38.181Z,8.40
2019-03-29T06:18:07.575Z,8.40
2019-03-29T06:20:37.146Z,8.50
2019-03-29T06:23:06.577Z,8.50
2019-03-29T06:25:36.115Z,8.50
2019-03-29T06:28:05.666Z,8.60
2019-03-29T06:30:35.271Z,8.60
2019-03-29T06:33:04.762Z,8.60
2019-03-29T06:35:36.672Z,8.70
2019-03-29T06:38:07.805Z,8.70
2019-03-29T06:40:37.197Z,8.80
2019-03-29T06:43:06.706Z,8.80
2019-03-29T06:45:47.392Z,8.90
2019-03-29T06:48:07.226Z,9.00
2019-03-29T06:50:36.915Z,9.00
2019-03-29T06:53:06.573Z,9.00
2019-03-29T06:55:35.952Z,9.10
2019-03-29T06:58:05.372Z,9.10
2019-03-29T07:00:34.957Z,9.20
2019-03-29T07:03:04.363Z,9.20
2019-03-29T07:05:33.756Z,9.30
2019-03-29T07:08:03.159Z,9.40
2019-03-29T07:10:32.566Z,9.40
2019-03-29T07:13:01.994Z,9.50
2019-03-29T07:15:31.411Z,9.60
2019-03-29T07:18:01.016Z,9.60
2019-03-29T07:20:30.351Z,9.70
2019-03-29T07:22:59.657Z,9.80
2019-03-29T07:25:28.994Z,9.80
2019-03-29T07:27:58.401Z,9.90
2019-03-29T07:30:28.466Z,9.90
2019-03-29T07:32:57.854Z,10.00
2019-03-29T07:35:27.169Z,10.00
2019-03-29T07:37:56.755Z,10.10
2019-03-29T07:40:26.155Z,10.20
2019-03-29T07:42:56.925Z,10.20
2019-03-29T07:45:26.310Z,10.20
2019-03-29T07:47:55.666Z,10.30
2019-03-29T07:50:25.112Z,10.30
2019-03-29T07:52:54.501Z,10.30
2019-03-29T07:55:23.917Z,10.40
2019-03-29T07:57:53.526Z,10.50
2019-03-29T08:00:23.222Z,10.50
2019-03-29T08:02:52.549Z,10.50
2019-03-29T08:05:22.135Z,10.60
2019-03-29T08:07:51.437Z,10.60
2019-03-29T08:10:27.386Z,10.60
2019-03-29T08:12:52.351Z,10.60
2019-03-29T08:15:22.059Z,10.70
2019-03-29T08:17:51.409Z,10.80
2019-03-29T08:20:40.521Z,10.80
2019-03-29T08:22:52.452Z,10.90
2019-03-29T08:25:22.067Z,10.90
2019-03-29T08:27:51.398Z,11.00
2019-03-29T08:30:20.986Z,11.00
2019-03-29T08:32:50.282Z,11.10
2019-03-29T08:35:19.923Z,11.10
2019-03-29T08:37:49.294Z,11.20
2019-03-29T08:40:18.653Z,11.20
2019-03-29T08:42:48.299Z,11.30
2019-03-29T08:45:17.679Z,11.30
2019-03-29T08:47:47.062Z,11.40
2019-03-29T08:50:16.478Z,11.40
2019-03-29T08:52:45.948Z,11.50
2019-03-29T08:55:17.433Z,11.50
2019-03-29T08:57:46.622Z,11.50
2019-03-29T09:00:19.202Z,11.60
2019-03-29T09:02:48.953Z,11.70
2019-03-29T09:05:18.560Z,11.70
2019-03-29T09:07:48.314Z,11.80
2019-03-29T09:10:25.138Z,11.80
2019-03-29T09:12:54.567Z,11.90
2019-03-29T09:15:23.983Z,11.90
2019-03-29T09:17:53.380Z,11.90
2019-03-29T09:20:22.781Z,12.00
2019-03-29T09:22:52.163Z,12.10
2019-03-29T09:25:21.798Z,12.20
2019-03-29T09:27:51.287Z,12.30
2019-03-29T09:30:20.834Z,12.30
2019-03-29T09:32:51.583Z,12.40
2019-03-29T09:35:21.203Z,12.50
2019-03-29T09:37:50.639Z,12.70
2019-03-29T09:40:20.202Z,12.70
2019-03-29T09:42:55.755Z,12.80
2019-03-29T09:45:21.017Z,12.90
2019-03-29T09:47:50.321Z,13.00
2019-03-29T09:50:22.776Z,13.00
2019-03-29T09:52:51.616Z,13.10
2019-03-29T09:55:21.131Z,13.10
2019-03-29T09:57:50.443Z,13.10
2019-03-29T10:00:23.323Z,13.20
2019-03-29T10:02:51.026Z,13.10
2019-03-29T10:05:20.599Z,13.10
2019-03-29T10:07:49.910Z,13.20
2019-03-29T10:10:19.241Z,13.40
2019-03-29T10:12:48.795Z,13.50
2019-03-29T10:15:18.442Z,13.60
2019-03-29T10:17:48.060Z,13.80
2019-03-29T10:20:17.755Z,13.90
2019-03-29T10:22:47.256Z,13.90
2019-03-29T10:25:19.812Z,14.00
2019-03-29T10:27:47.814Z,14.00
2019-03-29T10:30:36.148Z,14.10
2019-03-29T10:33:05.612Z,14.20
2019-03-29T10:35:50.312Z,14.30
2019-03-29T10:38:06.804Z,14.30
2019-03-29T10:40:36.366Z,14.40
2019-03-29T10:43:05.931Z,14.40
2019-03-29T10:45:39.821Z,14.40
2019-03-29T10:48:06.487Z,14.40
2019-03-29T10:50:36.203Z,14.40
2019-03-29T10:53:05.934Z,14.50
2019-03-29T10:55:35.696Z,14.60
2019-03-29T10:58:05.367Z,14.70
2019-03-29T11:00:37.033Z,14.80
2019-03-29T11:03:07.018Z,15.00
2019-03-29T11:05:36.705Z,15.10
2019-03-29T11:08:06.722Z,15.20
2019-03-29T11:10:37.426Z,15.20
2019-03-29T11:13:13.091Z,15.30
2019-03-29T11:15:38.614Z,15.30
2019-03-29T11:18:08.358Z,15.40
2019-03-29T11:20:37.978Z,15.50
2019-03-29T11:23:07.483Z,15.50
2019-03-29T11:25:36.847Z,15.60
2019-03-29T11:28:06.328Z,15.60
2019-03-29T11:30:42.636Z,15.40
2019-03-29T11:33:07.260Z,15.40
2019-03-29T11:35:37.147Z,15.20
2019-03-29T11:38:06.747Z,15.10
2019-03-29T11:40:36.767Z,15.10
2019-03-29T11:43:06.275Z,15.00
2019-03-29T11:45:35.842Z,14.90
2019-03-29T11:48:09.011Z,14.90
2019-03-29T11:50:36.918Z,14.90
2019-03-29T11:53:06.649Z,14.80
2019-03-29T11:55:36.060Z,14.90
2019-03-29T11:58:06.061Z,14.80
2019-03-29T12:00:37.031Z,14.80
2019-03-29T12:03:09.158Z,14.90
2019-03-29T12:05:38.033Z,14.80
2019-03-29T12:08:07.726Z,14.80
2019-03-29T12:10:37.236Z,14.90
2019-03-29T12:13:08.713Z,14.90
2019-03-29T12:15:38.350Z,14.90
2019-03-29T12:18:08.127Z,15.00
2019-03-29T12:20:38.075Z,15.00
2019-03-29T12:23:07.578Z,14.90
2019-03-29T12:25:37.163Z,14.90
2019-03-29T12:28:06.790Z,14.90
2019-03-29T12:30:36.292Z,14.90
2019-03-29T12:33:05.699Z,14.90
2019-03-29T12:35:35.211Z,14.90
2019-03-29T12:38:04.778Z,15.00
2019-03-29T12:40:34.239Z,15.00
2019-03-29T12:43:03.919Z,15.10
2019-03-29T12:45:33.594Z,15.20
2019-03-29T12:48:02.964Z,15.20
2019-03-29T12:50:32.284Z,15.20
2019-03-29T12:53:02.006Z,15.30
2019-03-29T12:55:31.351Z,15.40
2019-03-29T12:58:00.679Z,15.40
2019-03-29T13:00:30.362Z,15.40
2019-03-29T13:03:00.246Z,15.40
2019-03-29T13:05:29.860Z,15.40
2019-03-29T13:07:59.599Z,15.40
2019-03-29T13:10:29.511Z,15.40
2019-03-29T13:13:00.615Z,15.30
2019-03-29T13:15:30.034Z,15.60
2019-03-29T13:17:59.620Z,15.60
2019-03-29T13:20:29.193Z,15.70
2019-03-29T13:22:58.912Z,15.70
2019-03-29T13:25:28.313Z,15.70
2019-03-29T13:27:59.368Z,15.80
2019-03-29T13:30:29.047Z,15.80
2019-03-29T13:32:58.368Z,15.90
2019-03-29T13:35:28.187Z,15.90
2019-03-29T13:37:57.898Z,15.90
2019-03-29T13:40:27.579Z,16.00
2019-03-29T13:42:57.390Z,16.00
2019-03-29T13:45:28.031Z,16.10
2019-03-29T13:47:57.739Z,16.00
2019-03-29T13:50:27.446Z,16.00
2019-03-29T13:52:56.898Z,15.90
2019-03-29T13:55:26.659Z,15.90
2019-03-29T13:57:56.052Z,15.90
2019-03-29T14:00:26.170Z,16.00
2019-03-29T14:02:56.299Z,15.90
2019-03-29T14:05:25.610Z,15.90
2019-03-29T14:07:55.006Z,16.00
2019-03-29T14:10:24.310Z,16.00
2019-03-29T14:12:54.027Z,16.00
2019-03-29T14:15:23.456Z,16.10
2019-03-29T14:17:52.851Z,16.10
2019-03-29T14:20:33.285Z,16.20
2019-03-29T14:23:04.070Z,16.30
2019-03-29T14:25:33.594Z,16.40
2019-03-29T14:28:03.026Z,16.60
2019-03-29T14:30:32.331Z,16.70
2019-03-29T14:33:01.955Z,16.90
2019-03-29T14:35:31.258Z,17.00
2019-03-29T14:38:00.752Z,17.00
2019-03-29T14:40:30.729Z,17.50
2019-03-29T14:43:00.215Z,17.90
2019-03-29T14:45:29.758Z,18.30
2019-03-29T14:47:59.150Z,18.70
2019-03-29T14:50:28.513Z,19.50
2019-03-29T14:52:57.974Z,19.90
2019-03-29T14:55:27.300Z,20.50
2019-03-29T14:57:56.993Z,21.30
2019-03-29T15:00:40.723Z,22.00
2019-03-29T15:03:10.231Z,22.50
2019-03-29T15:05:40.300Z,22.80
2019-03-29T15:08:10.177Z,22.50
2019-03-29T15:10:40.174Z,22.60
2019-03-29T15:13:09.732Z,23.00
2019-03-29T15:15:39.524Z,23.10
2019-03-29T15:18:09.063Z,23.40
2019-03-29T15:20:52.079Z,23.40
2019-03-29T15:23:09.558Z,23.70
2019-03-29T15:25:40.551Z,23.60
2019-03-29T15:28:10.051Z,23.60
2019-03-29T15:30:39.703Z,23.60
2019-03-29T15:33:09.429Z,23.80
2019-03-29T15:35:38.763Z,23.80
2019-03-29T15:38:08.143Z,24.10
2019-03-29T15:40:37.862Z,24.20
2019-03-29T15:43:07.284Z,24.10
2019-03-29T15:45:36.823Z,24.20
2019-03-29T15:48:07.506Z,24.10
2019-03-29T15:50:37.000Z,24.00
2019-03-29T15:53:06.410Z,24.20
2019-03-29T15:55:35.831Z,24.30
2019-03-29T15:58:05.389Z,24.40
2019-03-29T16:00:35.018Z,24.50
2019-03-29T16:03:04.748Z,24.30
2019-03-29T16:05:34.054Z,23.90
2019-03-29T16:08:03.939Z,23.80
2019-03-29T16:10:33.346Z,23.50
2019-03-29T16:13:02.787Z,23.70
2019-03-29T16:15:36.507Z,23.60
2019-03-29T16:18:03.355Z,23.70
2019-03-29T16:20:32.748Z,23.70
2019-03-29T16:23:02.225Z,23.60
2019-03-29T16:25:31.655Z,23.50
2019-03-29T16:28:01.334Z,23.20
2019-03-29T16:30:30.740Z,23.20
2019-03-29T16:33:00.037Z,23.20
2019-03-29T16:35:29.912Z,23.30
2019-03-29T16:37:59.326Z,23.30
2019-03-29T16:40:31.027Z,23.30
2019-03-29T16:43:00.013Z,23.20
2019-03-29T16:45:29.318Z,23.20
2019-03-29T16:47:58.704Z,23.00
2019-03-29T16:50:28.303Z,22.80
2019-03-29T16:52:57.619Z,22.40
2019-03-29T16:55:27.050Z,22.00
2019-03-29T16:57:56.671Z,21.80
2019-03-29T17:00:25.967Z,21.60
2019-03-29T17:02:55.525Z,21.40
2019-03-29T17:05:24.922Z,21.20
2019-03-29T17:07:54.312Z,21.10
2019-03-29T17:10:23.713Z,20.90
2019-03-29T17:12:53.346Z,20.80
2019-03-29T17:15:23.050Z,20.80
2019-03-29T17:17:52.788Z,20.80
2019-03-29T17:20:22.081Z,20.80
2019-03-29T17:22:51.509Z,20.80
2019-03-29T17:25:20.881Z,20.70
2019-03-29T17:27:52.164Z,20.50
2019-03-29T17:30:36.484Z,20.20
2019-03-29T17:33:05.948Z,20.20
2019-03-29T17:35:35.347Z,20.20
2019-03-29T17:38:04.846Z,20.20
2019-03-29T17:40:34.302Z,19.90
2019-03-29T17:43:04.131Z,19.70
2019-03-29T17:45:33.606Z,19.60
2019-03-29T17:48:03.004Z,19.20
2019-03-29T17:50:32.525Z,18.90
2019-03-29T17:53:02.226Z,18.70
2019-03-29T17:55:32.046Z,18.50
2019-03-29T17:58:02.323Z,18.30
2019-03-29T18:00:31.904Z,18.20
2019-03-29T18:03:01.218Z,18.00
2019-03-29T18:05:30.739Z,17.70
2019-03-29T18:08:00.221Z,17.40
2019-03-29T18:10:32.314Z,17.30
2019-03-29T18:13:01.788Z,17.20
2019-03-29T18:15:31.438Z,17.00
2019-03-29T18:18:01.189Z,16.90
2019-03-29T18:20:30.666Z,16.70
2019-03-29T18:23:00.099Z,16.50
2019-03-29T18:25:29.726Z,16.40
2019-03-29T18:27:59.423Z,16.30
2019-03-29T18:30:37.213Z,16.10
2019-03-29T18:33:07.188Z,16.00
2019-03-29T18:35:36.642Z,15.80
2019-03-29T18:38:06.094Z,15.70
2019-03-29T18:40:35.959Z,15.60
2019-03-29T18:43:05.575Z,15.60
2019-03-29T18:45:35.265Z,15.50
2019-03-29T18:48:05.183Z,15.40
2019-03-29T18:53:03.373Z,15.20
2019-03-29T18:55:32.775Z,15.10
2019-03-29T18:58:05.674Z,15.00
2019-03-29T19:00:34.575Z,14.90
2019-03-29T19:03:04.570Z,14.80
2019-03-29T19:05:34.310Z,14.70
2019-03-29T19:08:03.810Z,14.50
2019-03-29T19:10:33.623Z,14.50
2019-03-29T19:13:03.178Z,14.40
2019-03-29T19:15:32.710Z,14.40
2019-03-29T19:18:02.018Z,14.30
2019-03-29T19:20:31.425Z,14.30
2019-03-29T19:23:01.338Z,14.20
2019-03-29T19:25:30.680Z,14.10
2019-03-29T19:28:00.078Z,14.00
2019-03-29T19:30:29.539Z,13.90
2019-03-29T19:32:59.001Z,13.90
2019-03-29T19:35:28.661Z,13.80
2019-03-29T19:37:58.270Z,13.70
2019-03-29T19:40:27.608Z,13.70
2019-03-29T19:42:56.930Z,13.60
2019-03-29T19:45:26.330Z,13.50
2019-03-29T19:47:56.287Z,13.40
2019-03-29T19:50:25.760Z,13.40
2019-03-29T19:52:55.211Z,13.30
2019-03-29T19:55:24.956Z,13.30
2019-03-29T19:57:54.596Z,13.20
2019-03-29T20:00:37.423Z,13.10
2019-03-29T20:03:07.021Z,13.10
2019-03-29T20:05:36.487Z,13.00
2019-03-29T20:08:05.881Z,13.00
2019-03-29T20:10:35.370Z,13.00
2019-03-29T20:13:05.071Z,12.90
2019-03-29T20:15:34.879Z,12.90
2019-03-29T20:18:05.945Z,12.80
2019-03-29T20:20:35.356Z,12.80
2019-03-29T20:23:05.159Z,12.80
2019-03-29T20:25:34.960Z,12.80
2019-03-29T20:28:04.435Z,12.80
2019-03-29T20:30:34.238Z,12.70
2019-03-29T20:33:03.646Z,12.70
2019-03-29T20:35:32.966Z,12.70
2019-03-29T20:38:02.498Z,12.70
2019-03-29T20:40:32.389Z,12.60
2019-03-29T20:43:02.626Z,12.50
2019-03-29T20:45:32.147Z,12.40
2019-03-29T20:48:01.705Z,12.40
2019-03-29T20:50:31.033Z,12.30
2019-03-29T20:53:00.454Z,12.30
2019-03-29T20:55:29.762Z,12.30
2019-03-29T20:57:59.172Z,12.20
2019-03-29T21:00:28.937Z,12.20
2019-03-29T21:02:58.894Z,12.20
2019-03-29T21:05:28.415Z,12.20
2019-03-29T21:07:58.110Z,12.10
2019-03-29T21:10:27.403Z,12.10
2019-03-29T21:12:56.816Z,12.10
2019-03-29T21:15:26.524Z,12.10
2019-03-29T21:17:57.887Z,12.00
2019-03-29T21:20:27.486Z,12.00
2019-03-29T21:22:56.915Z,12.00
2019-03-29T21:25:26.334Z,12.00
2019-03-29T21:27:55.825Z,12.00
2019-03-29T21:30:25.302Z,12.00
2019-03-29T21:32:54.653Z,11.90
2019-03-29T21:35:23.974Z,11.90
2019-03-29T21:37:54.947Z,11.90
2019-03-29T21:40:24.332Z,11.80
2019-03-29T21:42:53.761Z,11.80
2019-03-29T21:45:28.967Z,11.90
2019-03-29T21:48:04.158Z,11.90
2019-03-29T21:50:25.542Z,11.90
2019-03-29T21:52:54.950Z,11.90
2019-03-29T21:55:24.250Z,11.90
2019-03-29T21:57:53.667Z,11.90
2019-03-29T22:00:22.996Z,11.90
2019-03-29T22:02:52.382Z,11.80
2019-03-29T22:05:21.846Z,11.80
2019-03-29T22:07:51.174Z,11.80
2019-03-29T22:10:20.544Z,11.80
2019-03-29T22:12:50.629Z,11.70
2019-03-29T22:15:20.234Z,11.70
2019-03-29T22:17:49.570Z,11.70
2019-03-29T22:20:19.183Z,11.70
2019-03-29T22:22:48.803Z,11.60
2019-03-29T22:25:18.161Z,11.60
2019-03-29T22:27:47.798Z,11.60
2019-03-29T22:30:17.883Z,11.50
2019-03-29T22:32:47.594Z,11.50
2019-03-29T22:35:17.063Z,11.40
2019-03-29T22:37:47.253Z,11.40
2019-03-29T22:40:16.802Z,11.40
2019-03-29T22:42:46.471Z,11.30
2019-03-29T22:45:16.071Z,11.20
2019-03-29T22:47:45.524Z,11.20
2019-03-29T22:50:15.299Z,11.10
2019-03-29T22:52:45.031Z,11.00
2019-03-29T22:55:14.597Z,11.00
2019-03-29T22:57:44.058Z,11.00
2019-03-29T23:00:25.450Z,11.00
2019-03-29T23:02:55.324Z,10.90
2019-03-29T23:05:25.026Z,10.80
2019-03-29T23:07:54.867Z,10.70
2019-03-29T23:10:24.401Z,10.70
2019-03-29T23:12:53.904Z,10.70
2019-03-29T23:15:23.453Z,10.60
2019-03-29T23:17:53.071Z,10.60
2019-03-29T23:20:22.499Z,10.60
2019-03-29T23:22:51.952Z,10.50
2019-03-29T23:25:21.269Z,10.40
2019-03-29T23:27:50.849Z,10.40
2019-03-29T23:30:20.866Z,10.40
2019-03-29T23:32:50.516Z,10.30
2019-03-29T23:35:19.946Z,10.30
2019-03-29T23:37:49.635Z,10.30
2019-03-29T23:40:19.355Z,10.30
2019-03-29T23:42:48.746Z,10.20
2019-03-29T23:45:18.257Z,10.20
2019-03-29T23:47:47.729Z,10.20
2019-03-29T23:50:17.705Z,10.10
2019-03-29T23:52:47.274Z,10.10
2019-03-29T23:55:17.090Z,10.10
2019-03-29T23:57:46.425Z,10.00
